sensor_id;sensor_type;location;lat;lon;timestamp;temperature;humidity
37806;DHT22;25082;50.870;0.022;2024-01-06T00:01:48;19.00;65.10
37806;DHT22;25082;50.870;0.022;2024-01-06T00:04:14;19.00;65.10
37806;DHT22;25082;50.870;0.022;2024-01-06T00:06:40;19.00;65.10
37806;DHT22;25082;50.870;0.022;2024-01-06T00:09:05;19.00;65.10
37806;DHT22;25082;50.870;0.022;2024-01-06T00:11:31;19.00;65.00
37806;DHT22;25082;50.870;0.022;2024-01-06T00:13:57;18.90;64.90
37806;DHT22;25082;50.870;0.022;2024-01-06T00:16:23;18.90;64.90
37806;DHT22;25082;50.870;0.022;2024-01-06T00:18:49;18.90;64.80
37806;DHT22;25082;50.870;0.022;2024-01-06T00:21:14;18.90;64.70
37806;DHT22;25082;50.870;0.022;2024-01-06T00:23:41;18.90;64.70
37806;DHT22;25082;50.870;0.022;2024-01-06T00:26:07;18.90;64.90
37806;DHT22;25082;50.870;0.022;2024-01-06T00:28:33;18.90;64.70
37806;DHT22;25082;50.870;0.022;2024-01-06T00:30:59;18.80;65.30
37806;DHT22;25082;50.870;0.022;2024-01-06T00:33:25;18.80;64.70
37806;DHT22;25082;50.870;0.022;2024-01-06T00:35:51;18.80;64.60
37806;DHT22;25082;50.870;0.022;2024-01-06T00:38:16;18.80;64.70
37806;DHT22;25082;50.870;0.022;2024-01-06T00:40:42;18.80;64.60
37806;DHT22;25082;50.870;0.022;2024-01-06T00:43:08;18.80;64.50
37806;DHT22;25082;50.870;0.022;2024-01-06T00:45:34;18.80;64.60
37806;DHT22;25082;50.870;0.022;2024-01-06T00:47:59;18.80;64.50
37806;DHT22;25082;50.870;0.022;2024-01-06T00:50:25;18.80;64.50
37806;DHT22;25082;50.870;0.022;2024-01-06T00:52:51;18.80;64.40
37806;DHT22;25082;50.870;0.022;2024-01-06T00:55:19;18.70;64.30
37806;DHT22;25082;50.870;0.022;2024-01-06T00:57:45;18.70;64.30
37806;DHT22;25082;50.870;0.022;2024-01-06T01:00:11;18.70;64.20
37806;DHT22;25082;50.870;0.022;2024-01-06T01:02:38;18.70;64.20
37806;DHT22;25082;50.870;0.022;2024-01-06T01:05:03;18.70;64.30
37806;DHT22;25082;50.870;0.022;2024-01-06T01:07:29;18.70;64.20
37806;DHT22;25082;50.870;0.022;2024-01-06T01:09:56;18.70;64.20
37806;DHT22;25082;50.870;0.022;2024-01-06T01:12:24;18.70;64.60
37806;DHT22;25082;50.870;0.022;2024-01-06T01:14:50;18.60;64.10
37806;DHT22;25082;50.870;0.022;2024-01-06T01:17:16;18.60;64.10
37806;DHT22;25082;50.870;0.022;2024-01-06T01:19:42;18.60;64.00
37806;DHT22;25082;50.870;0.022;2024-01-06T01:22:07;18.60;64.00
37806;DHT22;25082;50.870;0.022;2024-01-06T01:24:33;18.60;64.00
37806;DHT22;25082;50.870;0.022;2024-01-06T01:26:59;18.60;64.00
37806;DHT22;25082;50.870;0.022;2024-01-06T01:29:25;18.60;63.90
37806;DHT22;25082;50.870;0.022;2024-01-06T01:31:51;18.60;63.90
37806;DHT22;25082;50.870;0.022;2024-01-06T01:34:16;18.60;63.90
37806;DHT22;25082;50.870;0.022;2024-01-06T01:36:42;18.60;63.90
37806;DHT22;25082;50.870;0.022;2024-01-06T01:39:08;18.50;63.80
37806;DHT22;25082;50.870;0.022;2024-01-06T01:41:35;18.50;63.70
37806;DHT22;25082;50.870;0.022;2024-01-06T01:44:01;18.50;63.80
37806;DHT22;25082;50.870;0.022;2024-01-06T01:46:30;18.50;63.70
37806;DHT22;25082;50.870;0.022;2024-01-06T01:48:58;18.50;63.70
37806;DHT22;25082;50.870;0.022;2024-01-06T01:51:27;18.50;63.70
37806;DHT22;25082;50.870;0.022;2024-01-06T01:53:54;18.50;63.60
37806;DHT22;25082;50.870;0.022;2024-01-06T01:56:20;18.50;63.70
37806;DHT22;25082;50.870;0.022;2024-01-06T01:58:47;18.50;63.60
37806;DHT22;25082;50.870;0.022;2024-01-06T02:01:13;18.40;63.50
37806;DHT22;25082;50.870;0.022;2024-01-06T02:03:41;18.40;63.60
37806;DHT22;25082;50.870;0.022;2024-01-06T02:06:12;18.40;63.60
37806;DHT22;25082;50.870;0.022;2024-01-06T02:08:38;18.40;63.60
37806;DHT22;25082;50.870;0.022;2024-01-06T02:11:04;18.40;63.50
37806;DHT22;25082;50.870;0.022;2024-01-06T02:13:34;18.40;63.50
37806;DHT22;25082;50.870;0.022;2024-01-06T02:16:06;18.40;63.40
37806;DHT22;25082;50.870;0.022;2024-01-06T02:18:32;18.40;63.50
37806;DHT22;25082;50.870;0.022;2024-01-06T02:20:59;18.30;63.40
37806;DHT22;25082;50.870;0.022;2024-01-06T02:23:26;18.40;63.40
37806;DHT22;25082;50.870;0.022;2024-01-06T02:25:52;18.30;63.30
37806;DHT22;25082;50.870;0.022;2024-01-06T02:28:18;18.30;63.40
37806;DHT22;25082;50.870;0.022;2024-01-06T02:30:44;18.30;63.30
37806;DHT22;25082;50.870;0.022;2024-01-06T02:33:09;18.30;63.30
37806;DHT22;25082;50.870;0.022;2024-01-06T02:35:36;18.30;63.30
37806;DHT22;25082;50.870;0.022;2024-01-06T02:38:01;18.30;63.30
37806;DHT22;25082;50.870;0.022;2024-01-06T02:40:27;18.30;63.30
37806;DHT22;25082;50.870;0.022;2024-01-06T02:42:53;18.30;63.30
37806;DHT22;25082;50.870;0.022;2024-01-06T02:45:19;18.30;63.30
37806;DHT22;25082;50.870;0.022;2024-01-06T02:47:45;18.30;63.20
37806;DHT22;25082;50.870;0.022;2024-01-06T02:50:11;18.20;63.20
37806;DHT22;25082;50.870;0.022;2024-01-06T02:52:37;18.20;63.20
37806;DHT22;25082;50.870;0.022;2024-01-06T02:55:03;18.20;63.20
37806;DHT22;25082;50.870;0.022;2024-01-06T02:57:30;18.20;63.20
37806;DHT22;25082;50.870;0.022;2024-01-06T02:59:56;18.20;63.20
37806;DHT22;25082;50.870;0.022;2024-01-06T03:02:22;18.20;63.20
37806;DHT22;25082;50.870;0.022;2024-01-06T03:04:48;18.20;63.20
37806;DHT22;25082;50.870;0.022;2024-01-06T03:07:13;18.20;63.20
37806;DHT22;25082;50.870;0.022;2024-01-06T03:09:39;18.20;63.20
37806;DHT22;25082;50.870;0.022;2024-01-06T03:12:06;18.20;63.20
37806;DHT22;25082;50.870;0.022;2024-01-06T03:14:34;18.20;63.20
37806;DHT22;25082;50.870;0.022;2024-01-06T03:17:00;18.20;63.10
37806;DHT22;25082;50.870;0.022;2024-01-06T03:19:26;18.10;63.20
37806;DHT22;25082;50.870;0.022;2024-01-06T03:21:53;18.20;63.20
37806;DHT22;25082;50.870;0.022;2024-01-06T03:24:20;18.20;63.10
37806;DHT22;25082;50.870;0.022;2024-01-06T03:26:46;18.20;63.20
37806;DHT22;25082;50.870;0.022;2024-01-06T03:29:12;18.20;63.20
37806;DHT22;25082;50.870;0.022;2024-01-06T03:31:41;18.10;63.00
37806;DHT22;25082;50.870;0.022;2024-01-06T03:34:07;18.10;63.10
37806;DHT22;25082;50.870;0.022;2024-01-06T03:36:34;18.10;63.10
37806;DHT22;25082;50.870;0.022;2024-01-06T03:38:59;18.10;63.10
37806;DHT22;25082;50.870;0.022;2024-01-06T03:41:25;18.10;63.00
37806;DHT22;25082;50.870;0.022;2024-01-06T03:43:51;18.10;63.10
37806;DHT22;25082;50.870;0.022;2024-01-06T03:46:17;18.10;63.00
37806;DHT22;25082;50.870;0.022;2024-01-06T03:48:42;18.10;63.10
37806;DHT22;25082;50.870;0.022;2024-01-06T03:51:10;18.00;63.00
37806;DHT22;25082;50.870;0.022;2024-01-06T03:53:36;18.00;63.00
37806;DHT22;25082;50.870;0.022;2024-01-06T03:56:03;18.00;63.10
37806;DHT22;25082;50.870;0.022;2024-01-06T03:58:29;18.10;63.10
37806;DHT22;25082;50.870;0.022;2024-01-06T04:00:55;18.00;63.00
37806;DHT22;25082;50.870;0.022;2024-01-06T04:03:20;18.00;63.00
37806;DHT22;25082;50.870;0.022;2024-01-06T04:05:46;18.00;63.60
37806;DHT22;25082;50.870;0.022;2024-01-06T04:08:12;18.00;63.00
37806;DHT22;25082;50.870;0.022;2024-01-06T04:10:38;18.00;63.00
37806;DHT22;25082;50.870;0.022;2024-01-06T04:13:04;18.00;63.00
37806;DHT22;25082;50.870;0.022;2024-01-06T04:15:30;18.00;63.10
37806;DHT22;25082;50.870;0.022;2024-01-06T04:18:02;18.00;63.10
37806;DHT22;25082;50.870;0.022;2024-01-06T04:20:28;18.00;63.60
37806;DHT22;25082;50.870;0.022;2024-01-06T04:22:54;17.90;63.00
37806;DHT22;25082;50.870;0.022;2024-01-06T04:25:20;18.00;63.10
37806;DHT22;25082;50.870;0.022;2024-01-06T04:27:46;18.00;63.10
37806;DHT22;25082;50.870;0.022;2024-01-06T04:30:14;18.00;63.10
37806;DHT22;25082;50.870;0.022;2024-01-06T04:32:40;17.90;63.00
37806;DHT22;25082;50.870;0.022;2024-01-06T04:35:06;17.90;63.00
37806;DHT22;25082;50.870;0.022;2024-01-06T04:37:32;18.00;63.10
37806;DHT22;25082;50.870;0.022;2024-01-06T04:39:58;17.90;63.00
37806;DHT22;25082;50.870;0.022;2024-01-06T04:42:23;17.90;63.00
37806;DHT22;25082;50.870;0.022;2024-01-06T04:44:50;17.90;63.00
37806;DHT22;25082;50.870;0.022;2024-01-06T04:47:16;17.90;63.00
37806;DHT22;25082;50.870;0.022;2024-01-06T04:49:42;17.90;63.00
37806;DHT22;25082;50.870;0.022;2024-01-06T04:52:07;17.90;63.00
37806;DHT22;25082;50.870;0.022;2024-01-06T04:54:33;17.90;63.00
37806;DHT22;25082;50.870;0.022;2024-01-06T04:56:59;17.90;63.10
37806;DHT22;25082;50.870;0.022;2024-01-06T04:59:25;17.80;63.00
37806;DHT22;25082;50.870;0.022;2024-01-06T05:01:51;17.80;63.00
37806;DHT22;25082;50.870;0.022;2024-01-06T05:04:17;17.80;63.00
37806;DHT22;25082;50.870;0.022;2024-01-06T05:06:43;17.80;63.10
37806;DHT22;25082;50.870;0.022;2024-01-06T05:09:09;17.90;63.10
37806;DHT22;25082;50.870;0.022;2024-01-06T05:11:35;17.80;63.10
37806;DHT22;25082;50.870;0.022;2024-01-06T05:14:01;17.80;63.00
37806;DHT22;25082;50.870;0.022;2024-01-06T05:16:27;17.80;63.00
37806;DHT22;25082;50.870;0.022;2024-01-06T05:18:53;17.80;63.00
37806;DHT22;25082;50.870;0.022;2024-01-06T05:21:19;17.80;63.00
37806;DHT22;25082;50.870;0.022;2024-01-06T05:23:45;17.80;63.10
37806;DHT22;25082;50.870;0.022;2024-01-06T05:26:11;17.80;63.10
37806;DHT22;25082;50.870;0.022;2024-01-06T05:28:38;17.70;63.00
37806;DHT22;25082;50.870;0.022;2024-01-06T05:31:04;17.80;63.20
37806;DHT22;25082;50.870;0.022;2024-01-06T05:33:30;17.70;63.00
37806;DHT22;25082;50.870;0.022;2024-01-06T05:35:56;17.80;63.10
37806;DHT22;25082;50.870;0.022;2024-01-06T05:38:21;17.70;63.00
37806;DHT22;25082;50.870;0.022;2024-01-06T05:40:47;17.70;63.00
37806;DHT22;25082;50.870;0.022;2024-01-06T05:43:13;17.70;63.00
37806;DHT22;25082;50.870;0.022;2024-01-06T05:45:39;17.70;63.00
37806;DHT22;25082;50.870;0.022;2024-01-06T05:48:10;17.70;63.10
37806;DHT22;25082;50.870;0.022;2024-01-06T05:50:40;17.70;63.10
37806;DHT22;25082;50.870;0.022;2024-01-06T05:53:06;17.70;63.10
37806;DHT22;25082;50.870;0.022;2024-01-06T05:55:32;17.70;63.10
37806;DHT22;25082;50.870;0.022;2024-01-06T05:57:58;17.70;63.10
37806;DHT22;25082;50.870;0.022;2024-01-06T06:00:24;17.70;63.10
37806;DHT22;25082;50.870;0.022;2024-01-06T06:02:50;17.70;63.10
37806;DHT22;25082;50.870;0.022;2024-01-06T06:05:16;17.70;63.10
37806;DHT22;25082;50.870;0.022;2024-01-06T06:07:42;17.70;63.10
37806;DHT22;25082;50.870;0.022;2024-01-06T06:10:10;17.70;63.10
37806;DHT22;25082;50.870;0.022;2024-01-06T06:12:36;17.70;63.10
37806;DHT22;25082;50.870;0.022;2024-01-06T06:15:03;17.70;63.00
37806;DHT22;25082;50.870;0.022;2024-01-06T06:17:33;17.70;63.10
37806;DHT22;25082;50.870;0.022;2024-01-06T06:19:59;17.60;63.00
37806;DHT22;25082;50.870;0.022;2024-01-06T06:22:25;17.60;63.00
37806;DHT22;25082;50.870;0.022;2024-01-06T06:25:01;17.60;63.10
37806;DHT22;25082;50.870;0.022;2024-01-06T06:27:27;17.60;63.10
37806;DHT22;25082;50.870;0.022;2024-01-06T06:29:54;17.60;63.10
37806;DHT22;25082;50.870;0.022;2024-01-06T06:32:20;17.60;63.10
37806;DHT22;25082;50.870;0.022;2024-01-06T06:34:45;17.60;63.10
37806;DHT22;25082;50.870;0.022;2024-01-06T06:37:11;17.60;63.10
37806;DHT22;25082;50.870;0.022;2024-01-06T06:39:37;17.60;63.10
37806;DHT22;25082;50.870;0.022;2024-01-06T06:42:03;17.60;63.10
37806;DHT22;25082;50.870;0.022;2024-01-06T06:44:29;17.60;63.10
37806;DHT22;25082;50.870;0.022;2024-01-06T06:46:56;17.50;63.00
37806;DHT22;25082;50.870;0.022;2024-01-06T06:49:22;17.50;63.10
37806;DHT22;25082;50.870;0.022;2024-01-06T06:51:47;17.50;63.10
37806;DHT22;25082;50.870;0.022;2024-01-06T06:54:16;17.50;63.00
37806;DHT22;25082;50.870;0.022;2024-01-06T06:56:42;17.50;63.10
37806;DHT22;25082;50.870;0.022;2024-01-06T06:59:08;17.50;63.10
37806;DHT22;25082;50.870;0.022;2024-01-06T07:01:34;17.50;63.10
37806;DHT22;25082;50.870;0.022;2024-01-06T07:04:01;17.50;63.10
37806;DHT22;25082;50.870;0.022;2024-01-06T07:06:28;17.50;63.10
37806;DHT22;25082;50.870;0.022;2024-01-06T07:08:54;17.40;63.10
37806;DHT22;25082;50.870;0.022;2024-01-06T07:11:20;17.50;63.60
37806;DHT22;25082;50.870;0.022;2024-01-06T07:13:46;17.40;63.00
37806;DHT22;25082;50.870;0.022;2024-01-06T07:16:12;17.50;63.60
37806;DHT22;25082;50.870;0.022;2024-01-06T07:18:38;17.40;63.00
37806;DHT22;25082;50.870;0.022;2024-01-06T07:21:06;17.40;63.10
37806;DHT22;25082;50.870;0.022;2024-01-06T07:23:33;17.40;63.00
37806;DHT22;25082;50.870;0.022;2024-01-06T07:25:59;17.40;62.80
37806;DHT22;25082;50.870;0.022;2024-01-06T07:28:25;17.50;62.90
37806;DHT22;25082;50.870;0.022;2024-01-06T07:30:50;17.50;62.80
37806;DHT22;25082;50.870;0.022;2024-01-06T07:33:16;17.50;62.70
37806;DHT22;25082;50.870;0.022;2024-01-06T07:35:42;17.50;63.20
37806;DHT22;25082;50.870;0.022;2024-01-06T07:38:12;17.60;62.60
37806;DHT22;25082;50.870;0.022;2024-01-06T07:40:38;17.50;62.50
37806;DHT22;25082;50.870;0.022;2024-01-06T07:43:04;17.60;62.40
37806;DHT22;25082;50.870;0.022;2024-01-06T07:45:30;17.60;62.30
37806;DHT22;25082;50.870;0.022;2024-01-06T07:48:00;17.70;62.90
37806;DHT22;25082;50.870;0.022;2024-01-06T07:50:26;17.70;62.30
37806;DHT22;25082;50.870;0.022;2024-01-06T07:52:53;17.70;62.40
37806;DHT22;25082;50.870;0.022;2024-01-06T07:55:19;17.70;62.30
37806;DHT22;25082;50.870;0.022;2024-01-06T07:57:46;17.70;62.30
37806;DHT22;25082;50.870;0.022;2024-01-06T08:00:12;17.70;62.30
37806;DHT22;25082;50.870;0.022;2024-01-06T08:02:42;17.70;62.40
37806;DHT22;25082;50.870;0.022;2024-01-06T08:05:08;17.80;62.40
37806;DHT22;25082;50.870;0.022;2024-01-06T08:07:34;17.80;62.50
37806;DHT22;25082;50.870;0.022;2024-01-06T08:10:00;17.80;62.50
37806;DHT22;25082;50.870;0.022;2024-01-06T08:12:26;17.80;62.50
37806;DHT22;25082;50.870;0.022;2024-01-06T08:14:52;17.90;62.60
37806;DHT22;25082;50.870;0.022;2024-01-06T08:17:17;17.90;62.60
37806;DHT22;25082;50.870;0.022;2024-01-06T08:19:43;17.90;62.60
37806;DHT22;25082;50.870;0.022;2024-01-06T08:22:12;17.90;62.60
37806;DHT22;25082;50.870;0.022;2024-01-06T08:24:37;17.90;62.60
37806;DHT22;25082;50.870;0.022;2024-01-06T08:27:04;17.90;62.60
37806;DHT22;25082;50.870;0.022;2024-01-06T08:29:30;18.00;62.70
37806;DHT22;25082;50.870;0.022;2024-01-06T08:31:56;18.00;62.70
37806;DHT22;25082;50.870;0.022;2024-01-06T08:34:22;18.00;62.70
37806;DHT22;25082;50.870;0.022;2024-01-06T08:36:47;18.00;62.70
37806;DHT22;25082;50.870;0.022;2024-01-06T08:39:13;18.00;62.70
37806;DHT22;25082;50.870;0.022;2024-01-06T08:41:39;18.00;62.70
37806;DHT22;25082;50.870;0.022;2024-01-06T08:44:05;18.10;62.70
37806;DHT22;25082;50.870;0.022;2024-01-06T08:46:30;18.10;62.70
37806;DHT22;25082;50.870;0.022;2024-01-06T08:48:56;18.10;62.70
37806;DHT22;25082;50.870;0.022;2024-01-06T08:51:22;18.10;62.80
37806;DHT22;25082;50.870;0.022;2024-01-06T08:53:49;18.10;62.80
37806;DHT22;25082;50.870;0.022;2024-01-06T08:56:15;18.10;62.80
37806;DHT22;25082;50.870;0.022;2024-01-06T08:58:43;18.10;62.90
37806;DHT22;25082;50.870;0.022;2024-01-06T09:01:09;18.10;62.90
37806;DHT22;25082;50.870;0.022;2024-01-06T09:03:35;18.10;62.90
37806;DHT22;25082;50.870;0.022;2024-01-06T09:06:00;18.20;63.00
37806;DHT22;25082;50.870;0.022;2024-01-06T09:08:26;18.20;62.90
37806;DHT22;25082;50.870;0.022;2024-01-06T09:10:53;18.20;63.00
37806;DHT22;25082;50.870;0.022;2024-01-06T09:13:23;18.20;62.90
37806;DHT22;25082;50.870;0.022;2024-01-06T09:15:50;18.30;63.60
37806;DHT22;25082;50.870;0.022;2024-01-06T09:18:16;18.30;63.00
37806;DHT22;25082;50.870;0.022;2024-01-06T09:20:42;18.30;62.90
37806;DHT22;25082;50.870;0.022;2024-01-06T09:23:08;18.30;62.90
37806;DHT22;25082;50.870;0.022;2024-01-06T09:25:35;18.30;62.90
37806;DHT22;25082;50.870;0.022;2024-01-06T09:28:01;18.40;63.00
37806;DHT22;25082;50.870;0.022;2024-01-06T09:30:27;18.40;62.90
37806;DHT22;25082;50.870;0.022;2024-01-06T09:32:52;18.40;62.90
37806;DHT22;25082;50.870;0.022;2024-01-06T09:35:18;18.50;62.90
37806;DHT22;25082;50.870;0.022;2024-01-06T09:37:44;18.50;62.90
37806;DHT22;25082;50.870;0.022;2024-01-06T09:40:12;18.40;63.70
37806;DHT22;25082;50.870;0.022;2024-01-06T09:42:39;18.40;63.80
37806;DHT22;25082;50.870;0.022;2024-01-06T09:45:05;18.40;65.00
37806;DHT22;25082;50.870;0.022;2024-01-06T09:47:34;18.40;65.40
37806;DHT22;25082;50.870;0.022;2024-01-06T09:50:02;18.40;65.20
37806;DHT22;25082;50.870;0.022;2024-01-06T09:52:32;18.40;65.30
37806;DHT22;25082;50.870;0.022;2024-01-06T09:55:00;18.40;65.50
37806;DHT22;25082;50.870;0.022;2024-01-06T09:57:27;18.40;65.70
37806;DHT22;25082;50.870;0.022;2024-01-06T09:59:54;18.40;66.10
37806;DHT22;25082;50.870;0.022;2024-01-06T10:02:21;18.40;66.30
37806;DHT22;25082;50.870;0.022;2024-01-06T10:04:48;18.40;66.30
37806;DHT22;25082;50.870;0.022;2024-01-06T10:07:14;18.40;66.30
37806;DHT22;25082;50.870;0.022;2024-01-06T10:09:41;18.40;66.40
37806;DHT22;25082;50.870;0.022;2024-01-06T10:12:09;18.50;66.50
37806;DHT22;25082;50.870;0.022;2024-01-06T10:14:35;18.50;66.50
37806;DHT22;25082;50.870;0.022;2024-01-06T10:17:02;18.50;66.60
37806;DHT22;25082;50.870;0.022;2024-01-06T10:19:28;18.50;66.50
37806;DHT22;25082;50.870;0.022;2024-01-06T10:21:54;18.50;66.50
37806;DHT22;25082;50.870;0.022;2024-01-06T10:24:20;18.50;66.50
37806;DHT22;25082;50.870;0.022;2024-01-06T10:26:46;18.50;66.50
37806;DHT22;25082;50.870;0.022;2024-01-06T10:29:13;18.60;66.40
37806;DHT22;25082;50.870;0.022;2024-01-06T10:31:39;18.60;66.30
37806;DHT22;25082;50.870;0.022;2024-01-06T10:34:05;18.60;66.30
37806;DHT22;25082;50.870;0.022;2024-01-06T10:36:31;18.60;66.20
37806;DHT22;25082;50.870;0.022;2024-01-06T10:38:58;18.60;66.20
37806;DHT22;25082;50.870;0.022;2024-01-06T10:41:24;18.70;66.20
37806;DHT22;25082;50.870;0.022;2024-01-06T10:43:51;18.70;66.10
37806;DHT22;25082;50.870;0.022;2024-01-06T10:46:19;18.70;66.10
37806;DHT22;25082;50.870;0.022;2024-01-06T10:48:46;18.70;66.10
37806;DHT22;25082;50.870;0.022;2024-01-06T10:51:13;18.70;66.00
37806;DHT22;25082;50.870;0.022;2024-01-06T10:53:41;18.70;66.00
37806;DHT22;25082;50.870;0.022;2024-01-06T10:56:08;18.70;66.10
37806;DHT22;25082;50.870;0.022;2024-01-06T10:58:35;18.70;66.30
37806;DHT22;25082;50.870;0.022;2024-01-06T11:01:11;18.70;66.30
37806;DHT22;25082;50.870;0.022;2024-01-06T11:03:38;18.70;67.00
37806;DHT22;25082;50.870;0.022;2024-01-06T11:06:08;18.70;66.20
37806;DHT22;25082;50.870;0.022;2024-01-06T11:08:44;18.70;66.10
37806;DHT22;25082;50.870;0.022;2024-01-06T11:11:21;18.80;66.00
37806;DHT22;25082;50.870;0.022;2024-01-06T11:13:49;18.80;66.10
37806;DHT22;25082;50.870;0.022;2024-01-06T11:16:41;18.80;66.00
37806;DHT22;25082;50.870;0.022;2024-01-06T11:22:18;18.90;65.90
37806;DHT22;25082;50.870;0.022;2024-01-06T11:24:48;18.90;65.90
37806;DHT22;25082;50.870;0.022;2024-01-06T11:27:26;18.90;65.80
37806;DHT22;25082;50.870;0.022;2024-01-06T11:30:00;18.90;65.70
37806;DHT22;25082;50.870;0.022;2024-01-06T11:32:30;18.90;65.70
37806;DHT22;25082;50.870;0.022;2024-01-06T11:35:19;19.00;65.80
37806;DHT22;25082;50.870;0.022;2024-01-06T11:42:43;19.00;65.40
37806;DHT22;25082;50.870;0.022;2024-01-06T11:45:09;19.00;65.30
37806;DHT22;25082;50.870;0.022;2024-01-06T11:47:35;19.00;65.20
37806;DHT22;25082;50.870;0.022;2024-01-06T11:50:03;19.10;65.20
37806;DHT22;25082;50.870;0.022;2024-01-06T11:52:32;19.10;65.20
37806;DHT22;25082;50.870;0.022;2024-01-06T11:54:59;19.10;65.20
37806;DHT22;25082;50.870;0.022;2024-01-06T11:57:28;19.10;65.20
37806;DHT22;25082;50.870;0.022;2024-01-06T11:59:55;19.10;65.20
37806;DHT22;25082;50.870;0.022;2024-01-06T12:02:21;19.10;65.20
37806;DHT22;25082;50.870;0.022;2024-01-06T12:04:50;19.10;65.10
37806;DHT22;25082;50.870;0.022;2024-01-06T12:07:17;19.10;65.20
37806;DHT22;25082;50.870;0.022;2024-01-06T12:09:43;19.10;65.20
37806;DHT22;25082;50.870;0.022;2024-01-06T12:12:09;19.10;65.20
37806;DHT22;25082;50.870;0.022;2024-01-06T12:14:41;19.10;65.20
37806;DHT22;25082;50.870;0.022;2024-01-06T12:17:07;19.10;65.10
37806;DHT22;25082;50.870;0.022;2024-01-06T12:19:33;19.10;65.10
37806;DHT22;25082;50.870;0.022;2024-01-06T12:21:59;19.10;65.20
37806;DHT22;25082;50.870;0.022;2024-01-06T12:24:29;19.20;65.30
37806;DHT22;25082;50.870;0.022;2024-01-06T12:26:56;19.10;65.60
37806;DHT22;25082;50.870;0.022;2024-01-06T12:29:28;19.10;65.70
37806;DHT22;25082;50.870;0.022;2024-01-06T12:31:55;19.20;65.90
37806;DHT22;25082;50.870;0.022;2024-01-06T12:34:21;19.20;66.10
37806;DHT22;25082;50.870;0.022;2024-01-06T12:36:47;19.20;66.40
37806;DHT22;25082;50.870;0.022;2024-01-06T12:39:13;19.20;66.90
37806;DHT22;25082;50.870;0.022;2024-01-06T12:41:43;19.20;67.00
37806;DHT22;25082;50.870;0.022;2024-01-06T12:44:09;19.20;67.20
37806;DHT22;25082;50.870;0.022;2024-01-06T12:46:35;19.20;67.30
37806;DHT22;25082;50.870;0.022;2024-01-06T12:49:01;19.20;67.10
37806;DHT22;25082;50.870;0.022;2024-01-06T12:51:28;19.20;67.10
37806;DHT22;25082;50.870;0.022;2024-01-06T12:53:54;19.30;67.00
37806;DHT22;25082;50.870;0.022;2024-01-06T12:56:20;19.30;66.90
37806;DHT22;25082;50.870;0.022;2024-01-06T12:58:45;19.40;66.80
37806;DHT22;25082;50.870;0.022;2024-01-06T13:01:11;19.30;66.60
37806;DHT22;25082;50.870;0.022;2024-01-06T13:03:37;19.40;66.60
37806;DHT22;25082;50.870;0.022;2024-01-06T13:06:03;19.40;66.60
37806;DHT22;25082;50.870;0.022;2024-01-06T13:08:29;19.30;66.50
37806;DHT22;25082;50.870;0.022;2024-01-06T13:10:55;19.30;66.50
37806;DHT22;25082;50.870;0.022;2024-01-06T13:13:21;19.30;66.50
37806;DHT22;25082;50.870;0.022;2024-01-06T13:15:47;19.30;66.40
37806;DHT22;25082;50.870;0.022;2024-01-06T13:18:13;19.30;66.30
37806;DHT22;25082;50.870;0.022;2024-01-06T13:20:39;19.30;66.30
37806;DHT22;25082;50.870;0.022;2024-01-06T13:23:07;19.30;66.40
37806;DHT22;25082;50.870;0.022;2024-01-06T13:25:34;19.20;66.30
37806;DHT22;25082;50.870;0.022;2024-01-06T13:28:00;19.30;66.20
37806;DHT22;25082;50.870;0.022;2024-01-06T13:30:26;19.30;66.10
37806;DHT22;25082;50.870;0.022;2024-01-06T13:32:53;19.20;66.00
37806;DHT22;25082;50.870;0.022;2024-01-06T13:35:22;19.20;66.00
37806;DHT22;25082;50.870;0.022;2024-01-06T13:37:54;19.20;65.90
37806;DHT22;25082;50.870;0.022;2024-01-06T13:40:22;19.20;65.90
37806;DHT22;25082;50.870;0.022;2024-01-06T13:42:48;19.20;65.90
37806;DHT22;25082;50.870;0.022;2024-01-06T13:45:14;19.30;66.00
37806;DHT22;25082;50.870;0.022;2024-01-06T13:47:41;19.20;65.90
37806;DHT22;25082;50.870;0.022;2024-01-06T13:50:16;19.20;66.00
37806;DHT22;25082;50.870;0.022;2024-01-06T13:52:43;19.20;65.60
37806;DHT22;25082;50.870;0.022;2024-01-06T13:55:09;19.20;65.60
37806;DHT22;25082;50.870;0.022;2024-01-06T13:57:36;19.30;65.50
37806;DHT22;25082;50.870;0.022;2024-01-06T14:00:07;19.20;65.40
37806;DHT22;25082;50.870;0.022;2024-01-06T14:02:33;19.20;65.30
37806;DHT22;25082;50.870;0.022;2024-01-06T14:04:59;19.20;65.30
37806;DHT22;25082;50.870;0.022;2024-01-06T14:07:25;19.20;65.30
37806;DHT22;25082;50.870;0.022;2024-01-06T14:09:51;19.30;65.40
37806;DHT22;25082;50.870;0.022;2024-01-06T14:12:18;19.30;65.50
37806;DHT22;25082;50.870;0.022;2024-01-06T14:14:44;19.30;65.40
37806;DHT22;25082;50.870;0.022;2024-01-06T14:17:11;19.30;65.40
37806;DHT22;25082;50.870;0.022;2024-01-06T14:19:37;19.30;65.60
37806;DHT22;25082;50.870;0.022;2024-01-06T14:22:03;19.30;65.50
37806;DHT22;25082;50.870;0.022;2024-01-06T14:24:31;19.30;65.50
37806;DHT22;25082;50.870;0.022;2024-01-06T14:26:57;19.30;65.30
37806;DHT22;25082;50.870;0.022;2024-01-06T14:29:23;19.30;65.30
37806;DHT22;25082;50.870;0.022;2024-01-06T14:31:49;19.30;65.20
37806;DHT22;25082;50.870;0.022;2024-01-06T14:34:15;19.30;65.20
37806;DHT22;25082;50.870;0.022;2024-01-06T14:36:41;19.30;65.30
37806;DHT22;25082;50.870;0.022;2024-01-06T14:39:14;19.40;65.30
37806;DHT22;25082;50.870;0.022;2024-01-06T14:41:40;19.30;65.20
37806;DHT22;25082;50.870;0.022;2024-01-06T14:44:06;19.40;65.50
37806;DHT22;25082;50.870;0.022;2024-01-06T14:46:32;19.30;65.40
37806;DHT22;25082;50.870;0.022;2024-01-06T14:48:59;19.40;65.60
37806;DHT22;25082;50.870;0.022;2024-01-06T14:51:25;19.40;65.50
37806;DHT22;25082;50.870;0.022;2024-01-06T14:53:51;19.40;65.50
37806;DHT22;25082;50.870;0.022;2024-01-06T14:56:17;19.40;65.40
37806;DHT22;25082;50.870;0.022;2024-01-06T14:58:42;19.40;65.30
37806;DHT22;25082;50.870;0.022;2024-01-06T15:01:08;19.40;65.30
37806;DHT22;25082;50.870;0.022;2024-01-06T15:03:34;19.40;62.90
37806;DHT22;25082;50.870;0.022;2024-01-06T15:06:00;19.20;61.60
37806;DHT22;25082;50.870;0.022;2024-01-06T15:08:25;19.20;62.80
37806;DHT22;25082;50.870;0.022;2024-01-06T15:10:52;19.20;62.80
37806;DHT22;25082;50.870;0.022;2024-01-06T15:13:18;19.20;62.90
37806;DHT22;25082;50.870;0.022;2024-01-06T15:15:44;19.20;63.10
37806;DHT22;25082;50.870;0.022;2024-01-06T15:18:10;19.20;63.30
37806;DHT22;25082;50.870;0.022;2024-01-06T15:20:36;19.30;63.50
37806;DHT22;25082;50.870;0.022;2024-01-06T15:23:02;19.20;63.50
37806;DHT22;25082;50.870;0.022;2024-01-06T15:25:28;19.30;63.60
37806;DHT22;25082;50.870;0.022;2024-01-06T15:27:53;19.30;64.30
37806;DHT22;25082;50.870;0.022;2024-01-06T15:30:19;19.30;63.80
37806;DHT22;25082;50.870;0.022;2024-01-06T15:32:46;19.30;63.90
37806;DHT22;25082;50.870;0.022;2024-01-06T15:35:12;19.10;56.50